Willow Island, Nebraska
Current Conditions -  °F | °C
As of 12:55 PM on Saturday 25 Oct 2014 (Local Time) from KLXN Reporting Station
Clear Clear  
Wind Chill: 71°   Ceiling: Unl
Heat Index: 71°   Visibility: 10mi
Dew Point: 46°   Wind: 8mph
Humidity: 41%   Direction: 90°E
Pressure: 30.11"   Gusts: NA
Location:  40.88°N, 100.1°W
Report Text: KLXN 251755Z AUTO 09007KT 10SM CLR 22/08 A3011 RMK AO2 T02170080 10217 20034
Loading
Personal Weather Stations






























Interactive Weather Map
Tropical Storm Tracking
New forecast layout! Learn more

10-Day Weather Forecast

Advertisements
Track Severe Weather on mobile